sensor_id;sensor_type;location;lat;lon;timestamp;P1;durP1;ratioP1;P2;durP2;ratioP2
46597;SDS011;32318;48.858;8.252;2023-02-15T00:07:16;100.95;;;26.67;;
46597;SDS011;32318;48.858;8.252;2023-02-15T00:15:18;89.43;;;26.25;;
46597;SDS011;32318;48.858;8.252;2023-02-15T00:23:18;100.70;;;25.42;;
46597;SDS011;32318;48.858;8.252;2023-02-15T00:31:18;85.20;;;26.15;;
46597;SDS011;32318;48.858;8.252;2023-02-15T00:39:19;90.20;;;27.35;;
46597;SDS011;32318;48.858;8.252;2023-02-15T00:47:19;94.80;;;26.07;;
46597;SDS011;32318;48.858;8.252;2023-02-15T00:55:19;82.35;;;27.02;;
46597;SDS011;32318;48.858;8.252;2023-02-15T01:03:20;90.80;;;25.85;;
46597;SDS011;32318;48.858;8.252;2023-02-15T01:11:21;76.65;;;25.90;;
46597;SDS011;32318;48.858;8.252;2023-02-15T01:19:22;82.82;;;25.58;;
46597;SDS011;32318;48.858;8.252;2023-02-15T01:27:23;85.95;;;24.75;;
46597;SDS011;32318;48.858;8.252;2023-02-15T01:35:23;83.53;;;22.93;;
46597;SDS011;32318;48.858;8.252;2023-02-15T01:43:37;72.82;;;24.55;;
46597;SDS011;32318;48.858;8.252;2023-02-15T01:51:40;78.25;;;23.60;;
46597;SDS011;32318;48.858;8.252;2023-02-15T01:59:44;79.75;;;23.30;;
46597;SDS011;32318;48.858;8.252;2023-02-15T02:07:50;76.50;;;22.37;;
46597;SDS011;32318;48.858;8.252;2023-02-15T02:16:04;70.82;;;23.42;;
46597;SDS011;32318;48.858;8.252;2023-02-15T02:49:03;77.63;;;22.35;;
46597;SDS011;32318;48.858;8.252;2023-02-15T02:57:05;68.82;;;21.83;;
46597;SDS011;32318;48.858;8.252;2023-02-15T03:05:11;70.95;;;20.75;;
46597;SDS011;32318;48.858;8.252;2023-02-15T03:13:16;62.70;;;20.17;;
46597;SDS011;32318;48.858;8.252;2023-02-15T03:21:17;68.82;;;19.98;;
46597;SDS011;32318;48.858;8.252;2023-02-15T03:29:22;69.05;;;22.40;;
46597;SDS011;32318;48.858;8.252;2023-02-15T03:45:41;66.25;;;19.98;;
46597;SDS011;32318;48.858;8.252;2023-02-15T03:53:54;64.78;;;21.95;;
46597;SDS011;32318;48.858;8.252;2023-02-15T04:10:09;60.92;;;19.38;;
46597;SDS011;32318;48.858;8.252;2023-02-15T04:18:32;60.35;;;19.45;;
46597;SDS011;32318;48.858;8.252;2023-02-15T04:26:53;58.97;;;19.38;;
46597;SDS011;32318;48.858;8.252;2023-02-15T04:34:53;60.22;;;20.05;;
46597;SDS011;32318;48.858;8.252;2023-02-15T04:42:54;61.97;;;19.63;;
46597;SDS011;32318;48.858;8.252;2023-02-15T04:50:54;74.63;;;19.92;;
46597;SDS011;32318;48.858;8.252;2023-02-15T04:58:54;62.78;;;19.35;;
46597;SDS011;32318;48.858;8.252;2023-02-15T05:06:54;68.20;;;20.50;;
46597;SDS011;32318;48.858;8.252;2023-02-15T05:14:55;72.30;;;19.05;;
46597;SDS011;32318;48.858;8.252;2023-02-15T05:22:55;49.75;;;17.65;;
46597;SDS011;32318;48.858;8.252;2023-02-15T05:31:14;63.35;;;18.70;;
46597;SDS011;32318;48.858;8.252;2023-02-15T05:39:17;55.80;;;18.23;;
46597;SDS011;32318;48.858;8.252;2023-02-15T05:47:17;53.80;;;18.08;;
46597;SDS011;32318;48.858;8.252;2023-02-15T05:55:17;73.63;;;18.08;;
46597;SDS011;32318;48.858;8.252;2023-02-15T06:03:18;86.22;;;18.65;;
46597;SDS011;32318;48.858;8.252;2023-02-15T06:11:18;47.70;;;17.02;;
46597;SDS011;32318;48.858;8.252;2023-02-15T06:19:19;52.83;;;17.40;;
46597;SDS011;32318;48.858;8.252;2023-02-15T06:27:19;55.10;;;18.23;;
46597;SDS011;32318;48.858;8.252;2023-02-15T06:35:19;64.22;;;18.70;;
46597;SDS011;32318;48.858;8.252;2023-02-15T06:43:21;64.28;;;18.50;;
46597;SDS011;32318;48.858;8.252;2023-02-15T06:51:21;56.17;;;18.02;;
46597;SDS011;32318;48.858;8.252;2023-02-15T06:59:22;67.30;;;17.30;;
46597;SDS011;32318;48.858;8.252;2023-02-15T07:07:22;63.70;;;18.08;;
46597;SDS011;32318;48.858;8.252;2023-02-15T07:15:22;55.13;;;18.70;;
46597;SDS011;32318;48.858;8.252;2023-02-15T07:23:23;62.00;;;18.85;;
46597;SDS011;32318;48.858;8.252;2023-02-15T07:31:25;59.13;;;17.80;;
46597;SDS011;32318;48.858;8.252;2023-02-15T07:39:25;59.17;;;17.92;;
46597;SDS011;32318;48.858;8.252;2023-02-15T07:47:26;61.42;;;17.65;;
46597;SDS011;32318;48.858;8.252;2023-02-15T07:55:26;50.95;;;18.65;;
46597;SDS011;32318;48.858;8.252;2023-02-15T08:03:27;53.05;;;17.95;;
46597;SDS011;32318;48.858;8.252;2023-02-15T08:11:29;62.58;;;20.67;;
46597;SDS011;32318;48.858;8.252;2023-02-15T08:19:39;59.70;;;17.42;;
46597;SDS011;32318;48.858;8.252;2023-02-15T08:27:39;57.25;;;17.30;;
46597;SDS011;32318;48.858;8.252;2023-02-15T08:35:40;55.70;;;18.05;;
46597;SDS011;32318;48.858;8.252;2023-02-15T08:43:40;46.33;;;16.13;;
46597;SDS011;32318;48.858;8.252;2023-02-15T08:51:41;46.20;;;16.58;;
46597;SDS011;32318;48.858;8.252;2023-02-15T08:59:42;54.53;;;17.77;;
46597;SDS011;32318;48.858;8.252;2023-02-15T09:07:42;61.15;;;16.88;;
46597;SDS011;32318;48.858;8.252;2023-02-15T09:15:42;54.85;;;18.58;;
46597;SDS011;32318;48.858;8.252;2023-02-15T09:23:43;45.38;;;16.35;;
46597;SDS011;32318;48.858;8.252;2023-02-15T09:31:46;45.50;;;17.23;;
46597;SDS011;32318;48.858;8.252;2023-02-15T09:39:52;50.05;;;19.30;;
46597;SDS011;32318;48.858;8.252;2023-02-15T09:56:04;54.55;;;18.65;;
46597;SDS011;32318;48.858;8.252;2023-02-15T10:12:48;51.97;;;18.92;;
46597;SDS011;32318;48.858;8.252;2023-02-15T10:21:54;51.22;;;17.80;;
46597;SDS011;32318;48.858;8.252;2023-02-15T10:29:35;46.15;;;18.08;;
46597;SDS011;32318;48.858;8.252;2023-02-15T10:54:49;42.67;;;16.35;;
46597;SDS011;32318;48.858;8.252;2023-02-15T11:11:12;41.08;;;15.35;;
46597;SDS011;32318;48.858;8.252;2023-02-15T11:19:26;48.40;;;16.35;;
46597;SDS011;32318;48.858;8.252;2023-02-15T11:27:34;42.58;;;15.27;;
46597;SDS011;32318;48.858;8.252;2023-02-15T11:35:41;36.28;;;14.90;;
46597;SDS011;32318;48.858;8.252;2023-02-15T11:51:49;38.88;;;16.00;;
46597;SDS011;32318;48.858;8.252;2023-02-15T11:59:52;40.58;;;16.30;;
46597;SDS011;32318;48.858;8.252;2023-02-15T12:08:19;39.53;;;16.05;;
46597;SDS011;32318;48.858;8.252;2023-02-15T12:16:19;42.53;;;16.27;;
46597;SDS011;32318;48.858;8.252;2023-02-15T12:24:21;47.40;;;17.50;;
46597;SDS011;32318;48.858;8.252;2023-02-15T12:32:26;47.72;;;19.00;;
46597;SDS011;32318;48.858;8.252;2023-02-15T12:40:29;51.60;;;19.15;;
46597;SDS011;32318;48.858;8.252;2023-02-15T12:48:30;50.28;;;17.90;;
46597;SDS011;32318;48.858;8.252;2023-02-15T12:56:30;52.63;;;17.90;;
46597;SDS011;32318;48.858;8.252;2023-02-15T13:04:30;45.30;;;18.17;;
46597;SDS011;32318;48.858;8.252;2023-02-15T13:12:31;49.72;;;19.33;;
46597;SDS011;32318;48.858;8.252;2023-02-15T13:20:32;45.85;;;18.33;;
46597;SDS011;32318;48.858;8.252;2023-02-15T13:28:37;54.88;;;20.10;;
46597;SDS011;32318;48.858;8.252;2023-02-15T13:44:58;58.38;;;22.08;;
46597;SDS011;32318;48.858;8.252;2023-02-15T14:34:42;56.58;;;22.90;;
46597;SDS011;32318;48.858;8.252;2023-02-15T14:42:53;64.50;;;23.02;;
46597;SDS011;32318;48.858;8.252;2023-02-15T14:51:00;67.00;;;24.63;;
46597;SDS011;32318;48.858;8.252;2023-02-15T14:59:14;61.42;;;23.08;;
46597;SDS011;32318;48.858;8.252;2023-02-15T15:07:24;71.85;;;25.10;;
46597;SDS011;32318;48.858;8.252;2023-02-15T15:23:36;67.70;;;23.92;;
46597;SDS011;32318;48.858;8.252;2023-02-15T15:31:50;56.78;;;22.75;;
46597;SDS011;32318;48.858;8.252;2023-02-15T15:48:22;57.85;;;21.27;;
46597;SDS011;32318;48.858;8.252;2023-02-15T15:56:30;66.10;;;23.15;;
46597;SDS011;32318;48.858;8.252;2023-02-15T16:04:32;60.38;;;22.73;;
46597;SDS011;32318;48.858;8.252;2023-02-15T16:12:35;59.22;;;24.40;;
46597;SDS011;32318;48.858;8.252;2023-02-15T16:20:37;55.28;;;23.05;;
46597;SDS011;32318;48.858;8.252;2023-02-15T16:28:37;60.17;;;23.95;;
46597;SDS011;32318;48.858;8.252;2023-02-15T16:36:38;58.78;;;25.17;;
46597;SDS011;32318;48.858;8.252;2023-02-15T16:44:39;62.97;;;25.35;;
46597;SDS011;32318;48.858;8.252;2023-02-15T16:52:40;52.05;;;22.83;;
46597;SDS011;32318;48.858;8.252;2023-02-15T17:00:43;55.63;;;23.75;;
46597;SDS011;32318;48.858;8.252;2023-02-15T17:08:44;49.58;;;20.63;;
46597;SDS011;32318;48.858;8.252;2023-02-15T17:16:45;57.00;;;22.17;;
46597;SDS011;32318;48.858;8.252;2023-02-15T17:24:50;51.20;;;21.55;;
46597;SDS011;32318;48.858;8.252;2023-02-15T17:33:00;61.03;;;24.98;;
46597;SDS011;32318;48.858;8.252;2023-02-15T17:41:01;53.60;;;22.13;;
46597;SDS011;32318;48.858;8.252;2023-02-15T17:49:02;54.13;;;22.33;;
46597;SDS011;32318;48.858;8.252;2023-02-15T17:57:07;58.05;;;23.27;;
46597;SDS011;32318;48.858;8.252;2023-02-15T18:05:13;51.40;;;21.80;;
46597;SDS011;32318;48.858;8.252;2023-02-15T18:13:32;54.15;;;21.15;;
46597;SDS011;32318;48.858;8.252;2023-02-15T18:21:32;50.88;;;21.23;;
46597;SDS011;32318;48.858;8.252;2023-02-15T18:29:33;69.15;;;24.98;;
46597;SDS011;32318;48.858;8.252;2023-02-15T18:37:33;59.80;;;24.02;;
46597;SDS011;32318;48.858;8.252;2023-02-15T18:45:33;55.03;;;22.10;;
46597;SDS011;32318;48.858;8.252;2023-02-15T18:53:36;67.65;;;24.20;;
46597;SDS011;32318;48.858;8.252;2023-02-15T19:01:36;104.05;;;26.95;;
46597;SDS011;32318;48.858;8.252;2023-02-15T19:09:36;91.50;;;26.00;;
46597;SDS011;32318;48.858;8.252;2023-02-15T19:17:38;84.13;;;24.38;;
46597;SDS011;32318;48.858;8.252;2023-02-15T19:25:38;79.63;;;26.40;;
46597;SDS011;32318;48.858;8.252;2023-02-15T19:33:40;80.90;;;22.73;;
46597;SDS011;32318;48.858;8.252;2023-02-15T19:41:40;96.25;;;21.92;;
46597;SDS011;32318;48.858;8.252;2023-02-15T19:49:41;105.68;;;21.73;;
46597;SDS011;32318;48.858;8.252;2023-02-15T19:57:41;127.47;;;20.02;;
46597;SDS011;32318;48.858;8.252;2023-02-15T20:05:42;221.85;;;38.40;;
46597;SDS011;32318;48.858;8.252;2023-02-15T20:13:43;75.60;;;20.00;;
46597;SDS011;32318;48.858;8.252;2023-02-15T20:26:53;68.60;;;19.15;;
46597;SDS011;32318;48.858;8.252;2023-02-15T20:34:53;67.82;;;20.15;;
46597;SDS011;32318;48.858;8.252;2023-02-15T20:42:54;81.35;;;21.58;;
46597;SDS011;32318;48.858;8.252;2023-02-15T20:50:54;86.45;;;25.17;;
46597;SDS011;32318;48.858;8.252;2023-02-15T20:58:57;65.65;;;23.30;;
46597;SDS011;32318;48.858;8.252;2023-02-15T21:06:58;99.63;;;24.10;;
46597;SDS011;32318;48.858;8.252;2023-02-15T21:14:59;104.95;;;26.80;;
46597;SDS011;32318;48.858;8.252;2023-02-15T21:23:01;72.80;;;22.95;;
46597;SDS011;32318;48.858;8.252;2023-02-15T21:31:04;48.67;;;21.52;;
46597;SDS011;32318;48.858;8.252;2023-02-15T21:39:05;65.75;;;22.20;;
46597;SDS011;32318;48.858;8.252;2023-02-15T21:47:07;50.85;;;20.65;;
46597;SDS011;32318;48.858;8.252;2023-02-15T21:55:51;60.17;;;22.83;;
46597;SDS011;32318;48.858;8.252;2023-02-15T22:03:54;78.97;;;22.38;;
46597;SDS011;32318;48.858;8.252;2023-02-15T22:11:56;105.38;;;20.52;;
46597;SDS011;32318;48.858;8.252;2023-02-15T22:19:57;63.97;;;20.90;;
46597;SDS011;32318;48.858;8.252;2023-02-15T22:27:57;98.25;;;22.45;;
46597;SDS011;32318;48.858;8.252;2023-02-15T22:35:58;63.03;;;20.70;;
46597;SDS011;32318;48.858;8.252;2023-02-15T22:43:59;130.98;;;23.10;;
46597;SDS011;32318;48.858;8.252;2023-02-15T22:51:59;68.60;;;21.63;;
46597;SDS011;32318;48.858;8.252;2023-02-15T23:00:00;47.40;;;20.85;;
46597;SDS011;32318;48.858;8.252;2023-02-15T23:08:00;58.45;;;21.50;;
46597;SDS011;32318;48.858;8.252;2023-02-15T23:16:02;84.28;;;21.67;;
46597;SDS011;32318;48.858;8.252;2023-02-15T23:24:23;76.25;;;22.30;;
46597;SDS011;32318;48.858;8.252;2023-02-15T23:32:26;77.63;;;21.73;;
46597;SDS011;32318;48.858;8.252;2023-02-15T23:40:26;128.38;;;24.40;;
46597;SDS011;32318;48.858;8.252;2023-02-15T23:48:45;120.40;;;22.33;;
46597;SDS011;32318;48.858;8.252;2023-02-15T23:56:46;101.90;;;24.42;;
